sensor_id;sensor_type;location;lat;lon;timestamp;temperature;humidity
3190;DHT22;1606;51.946;10.558;2023-02-17T00:00:54;11.20;99.90
3190;DHT22;1606;51.946;10.558;2023-02-17T00:03:23;11.20;99.90
3190;DHT22;1606;51.946;10.558;2023-02-17T00:05:51;11.10;99.90
3190;DHT22;1606;51.946;10.558;2023-02-17T00:08:19;11.10;99.90
3190;DHT22;1606;51.946;10.558;2023-02-17T00:10:54;11.10;99.90
3190;DHT22;1606;51.946;10.558;2023-02-17T00:13:23;11.10;99.90
3190;DHT22;1606;51.946;10.558;2023-02-17T00:15:51;11.10;99.90
3190;DHT22;1606;51.946;10.558;2023-02-17T00:18:20;11.30;99.90
3190;DHT22;1606;51.946;10.558;2023-02-17T00:20:48;11.40;99.90
3190;DHT22;1606;51.946;10.558;2023-02-17T00:23:16;11.20;99.90
3190;DHT22;1606;51.946;10.558;2023-02-17T00:25:43;11.20;99.90
3190;DHT22;1606;51.946;10.558;2023-02-17T00:28:11;11.50;99.90
3190;DHT22;1606;51.946;10.558;2023-02-17T00:30:39;11.30;99.90
3190;DHT22;1606;51.946;10.558;2023-02-17T00:33:07;11.50;99.90
3190;DHT22;1606;51.946;10.558;2023-02-17T00:35:39;11.60;99.90
3190;DHT22;1606;51.946;10.558;2023-02-17T00:38:07;11.60;99.90
3190;DHT22;1606;51.946;10.558;2023-02-17T00:40:35;11.40;99.90
3190;DHT22;1606;51.946;10.558;2023-02-17T00:43:04;11.70;99.90
3190;DHT22;1606;51.946;10.558;2023-02-17T00:45:32;11.80;99.90
3190;DHT22;1606;51.946;10.558;2023-02-17T00:47:59;11.80;99.90
3190;DHT22;1606;51.946;10.558;2023-02-17T00:50:27;11.80;99.90
3190;DHT22;1606;51.946;10.558;2023-02-17T00:52:56;11.80;99.90
3190;DHT22;1606;51.946;10.558;2023-02-17T00:55:24;11.80;99.90
3190;DHT22;1606;51.946;10.558;2023-02-17T00:57:52;11.80;99.90
3190;DHT22;1606;51.946;10.558;2023-02-17T01:00:20;11.90;99.90
3190;DHT22;1606;51.946;10.558;2023-02-17T01:02:48;11.80;99.90
3190;DHT22;1606;51.946;10.558;2023-02-17T01:05:16;11.80;99.90
3190;DHT22;1606;51.946;10.558;2023-02-17T01:07:43;11.60;99.90
3190;DHT22;1606;51.946;10.558;2023-02-17T01:10:13;11.80;99.90
3190;DHT22;1606;51.946;10.558;2023-02-17T01:12:40;11.80;99.90
3190;DHT22;1606;51.946;10.558;2023-02-17T01:15:09;11.90;99.90
3190;DHT22;1606;51.946;10.558;2023-02-17T01:17:36;11.90;99.90
3190;DHT22;1606;51.946;10.558;2023-02-17T01:20:05;11.80;99.90
3190;DHT22;1606;51.946;10.558;2023-02-17T01:22:33;12.00;99.90
3190;DHT22;1606;51.946;10.558;2023-02-17T01:25:01;12.10;99.90
3190;DHT22;1606;51.946;10.558;2023-02-17T01:27:32;12.00;99.90
3190;DHT22;1606;51.946;10.558;2023-02-17T01:30:00;11.90;99.90
3190;DHT22;1606;51.946;10.558;2023-02-17T01:32:28;11.90;99.90
3190;DHT22;1606;51.946;10.558;2023-02-17T01:34:56;11.90;99.90
3190;DHT22;1606;51.946;10.558;2023-02-17T01:37:23;12.00;99.90
3190;DHT22;1606;51.946;10.558;2023-02-17T01:39:51;11.80;99.90
3190;DHT22;1606;51.946;10.558;2023-02-17T01:42:19;11.80;99.90
3190;DHT22;1606;51.946;10.558;2023-02-17T01:48:10;11.90;99.90
3190;DHT22;1606;51.946;10.558;2023-02-17T01:50:43;11.70;99.90
3190;DHT22;1606;51.946;10.558;2023-02-17T01:53:14;11.70;99.90
3190;DHT22;1606;51.946;10.558;2023-02-17T01:55:45;11.90;99.90
3190;DHT22;1606;51.946;10.558;2023-02-17T01:58:15;11.90;99.90
3190;DHT22;1606;51.946;10.558;2023-02-17T02:00:44;11.80;99.90
3190;DHT22;1606;51.946;10.558;2023-02-17T02:03:14;11.70;99.90
3190;DHT22;1606;51.946;10.558;2023-02-17T02:05:42;12.00;99.90
3190;DHT22;1606;51.946;10.558;2023-02-17T02:08:11;12.00;99.90
3190;DHT22;1606;51.946;10.558;2023-02-17T02:10:39;12.10;99.90
3190;DHT22;1606;51.946;10.558;2023-02-17T02:13:08;12.20;99.90
3190;DHT22;1606;51.946;10.558;2023-02-17T02:15:40;12.10;99.90
3190;DHT22;1606;51.946;10.558;2023-02-17T02:18:21;12.00;99.90
3190;DHT22;1606;51.946;10.558;2023-02-17T02:24:21;11.80;99.90
3190;DHT22;1606;51.946;10.558;2023-02-17T02:27:25;11.90;99.90
3190;DHT22;1606;51.946;10.558;2023-02-17T02:30:17;11.90;99.90
3190;DHT22;1606;51.946;10.558;2023-02-17T02:32:57;11.90;99.90
3190;DHT22;1606;51.946;10.558;2023-02-17T02:35:35;11.90;99.90
3190;DHT22;1606;51.946;10.558;2023-02-17T02:38:11;12.00;99.90
3190;DHT22;1606;51.946;10.558;2023-02-17T02:40:43;12.10;99.90
3190;DHT22;1606;51.946;10.558;2023-02-17T02:43:11;11.80;99.90
3190;DHT22;1606;51.946;10.558;2023-02-17T02:45:39;11.70;99.90
3190;DHT22;1606;51.946;10.558;2023-02-17T02:48:08;11.70;99.90
3190;DHT22;1606;51.946;10.558;2023-02-17T02:50:57;11.80;99.90
3190;DHT22;1606;51.946;10.558;2023-02-17T02:53:48;11.90;99.90
3190;DHT22;1606;51.946;10.558;2023-02-17T02:56:34;12.00;99.90
3190;DHT22;1606;51.946;10.558;2023-02-17T02:59:12;11.70;99.90
3190;DHT22;1606;51.946;10.558;2023-02-17T03:01:51;11.40;99.90
3190;DHT22;1606;51.946;10.558;2023-02-17T03:04:27;11.50;99.90
3190;DHT22;1606;51.946;10.558;2023-02-17T03:07:06;11.80;99.90
3190;DHT22;1606;51.946;10.558;2023-02-17T03:09:35;11.70;99.90
3190;DHT22;1606;51.946;10.558;2023-02-17T03:12:04;11.90;99.90
3190;DHT22;1606;51.946;10.558;2023-02-17T03:14:35;11.90;99.90
3190;DHT22;1606;51.946;10.558;2023-02-17T03:17:03;11.80;99.90
3190;DHT22;1606;51.946;10.558;2023-02-17T03:19:32;11.70;99.90
3190;DHT22;1606;51.946;10.558;2023-02-17T03:22:04;11.90;99.90
3190;DHT22;1606;51.946;10.558;2023-02-17T03:24:34;12.00;99.90
3190;DHT22;1606;51.946;10.558;2023-02-17T03:27:02;12.00;99.90
3190;DHT22;1606;51.946;10.558;2023-02-17T03:29:30;11.80;99.90
3190;DHT22;1606;51.946;10.558;2023-02-17T03:31:58;11.90;99.90
3190;DHT22;1606;51.946;10.558;2023-02-17T03:34:26;11.90;99.90
3190;DHT22;1606;51.946;10.558;2023-02-17T03:36:55;11.80;99.90
3190;DHT22;1606;51.946;10.558;2023-02-17T03:39:22;11.80;99.90
3190;DHT22;1606;51.946;10.558;2023-02-17T03:41:51;11.80;99.90
3190;DHT22;1606;51.946;10.558;2023-02-17T03:44:25;11.90;99.90
3190;DHT22;1606;51.946;10.558;2023-02-17T03:46:52;11.80;99.90
3190;DHT22;1606;51.946;10.558;2023-02-17T03:49:20;11.80;99.90
3190;DHT22;1606;51.946;10.558;2023-02-17T03:51:48;12.00;99.90
3190;DHT22;1606;51.946;10.558;2023-02-17T03:54:17;12.00;99.90
3190;DHT22;1606;51.946;10.558;2023-02-17T03:56:45;11.90;99.90
3190;DHT22;1606;51.946;10.558;2023-02-17T03:59:12;11.90;99.90
3190;DHT22;1606;51.946;10.558;2023-02-17T04:01:40;11.70;99.90
3190;DHT22;1606;51.946;10.558;2023-02-17T04:04:08;11.80;99.90
3190;DHT22;1606;51.946;10.558;2023-02-17T04:06:36;11.90;99.90
3190;DHT22;1606;51.946;10.558;2023-02-17T04:09:04;12.00;99.90
3190;DHT22;1606;51.946;10.558;2023-02-17T04:11:33;12.10;99.90
3190;DHT22;1606;51.946;10.558;2023-02-17T04:14:01;12.10;99.90
3190;DHT22;1606;51.946;10.558;2023-02-17T04:16:28;12.10;99.90
3190;DHT22;1606;51.946;10.558;2023-02-17T04:18:56;12.30;99.90
3190;DHT22;1606;51.946;10.558;2023-02-17T04:21:24;12.20;99.90
3190;DHT22;1606;51.946;10.558;2023-02-17T04:23:52;12.20;99.90
3190;DHT22;1606;51.946;10.558;2023-02-17T04:26:20;12.20;99.90
3190;DHT22;1606;51.946;10.558;2023-02-17T04:28:49;12.10;99.90
3190;DHT22;1606;51.946;10.558;2023-02-17T04:31:17;12.20;99.90
3190;DHT22;1606;51.946;10.558;2023-02-17T04:33:45;11.90;99.90
3190;DHT22;1606;51.946;10.558;2023-02-17T04:36:13;12.10;99.90
3190;DHT22;1606;51.946;10.558;2023-02-17T04:38:41;12.00;99.90
3190;DHT22;1606;51.946;10.558;2023-02-17T04:41:08;12.00;99.90
3190;DHT22;1606;51.946;10.558;2023-02-17T04:43:36;12.10;99.90
3190;DHT22;1606;51.946;10.558;2023-02-17T04:46:06;12.20;99.90
3190;DHT22;1606;51.946;10.558;2023-02-17T04:48:34;12.20;99.90
3190;DHT22;1606;51.946;10.558;2023-02-17T04:51:03;12.20;99.90
3190;DHT22;1606;51.946;10.558;2023-02-17T04:53:31;12.10;99.90
3190;DHT22;1606;51.946;10.558;2023-02-17T04:55:59;12.10;99.90
3190;DHT22;1606;51.946;10.558;2023-02-17T04:58:27;12.10;99.90
3190;DHT22;1606;51.946;10.558;2023-02-17T05:00:58;12.10;99.90
3190;DHT22;1606;51.946;10.558;2023-02-17T05:03:27;12.00;99.90
3190;DHT22;1606;51.946;10.558;2023-02-17T05:05:55;12.30;99.90
3190;DHT22;1606;51.946;10.558;2023-02-17T05:08:23;12.30;99.90
3190;DHT22;1606;51.946;10.558;2023-02-17T05:10:51;12.30;99.90
3190;DHT22;1606;51.946;10.558;2023-02-17T05:13:19;12.30;99.90
3190;DHT22;1606;51.946;10.558;2023-02-17T05:15:47;12.30;99.90
3190;DHT22;1606;51.946;10.558;2023-02-17T05:18:15;12.30;99.90
3190;DHT22;1606;51.946;10.558;2023-02-17T05:20:44;12.00;99.90
3190;DHT22;1606;51.946;10.558;2023-02-17T05:23:13;12.10;99.90
3190;DHT22;1606;51.946;10.558;2023-02-17T05:25:41;12.10;99.90
3190;DHT22;1606;51.946;10.558;2023-02-17T05:28:08;12.10;99.90
3190;DHT22;1606;51.946;10.558;2023-02-17T05:30:36;12.00;99.90
3190;DHT22;1606;51.946;10.558;2023-02-17T05:33:04;11.90;99.90
3190;DHT22;1606;51.946;10.558;2023-02-17T05:35:33;12.10;99.90
3190;DHT22;1606;51.946;10.558;2023-02-17T05:38:02;12.30;99.90
3190;DHT22;1606;51.946;10.558;2023-02-17T05:40:30;12.30;99.90
3190;DHT22;1606;51.946;10.558;2023-02-17T05:42:58;12.10;99.90
3190;DHT22;1606;51.946;10.558;2023-02-17T05:45:25;12.30;99.90
3190;DHT22;1606;51.946;10.558;2023-02-17T05:47:53;12.20;99.90
3190;DHT22;1606;51.946;10.558;2023-02-17T05:50:21;12.20;99.90
3190;DHT22;1606;51.946;10.558;2023-02-17T05:52:49;12.00;99.90
3190;DHT22;1606;51.946;10.558;2023-02-17T05:55:18;12.10;99.90
3190;DHT22;1606;51.946;10.558;2023-02-17T05:57:52;12.20;99.90
3190;DHT22;1606;51.946;10.558;2023-02-17T06:00:20;12.10;99.90
3190;DHT22;1606;51.946;10.558;2023-02-17T06:02:49;12.00;99.90
3190;DHT22;1606;51.946;10.558;2023-02-17T06:05:17;12.00;99.90
3190;DHT22;1606;51.946;10.558;2023-02-17T06:07:45;12.20;99.90
3190;DHT22;1606;51.946;10.558;2023-02-17T06:10:13;12.20;99.90
3190;DHT22;1606;51.946;10.558;2023-02-17T06:12:42;12.10;99.90
3190;DHT22;1606;51.946;10.558;2023-02-17T06:15:10;12.20;99.90
3190;DHT22;1606;51.946;10.558;2023-02-17T06:17:38;12.20;99.90
3190;DHT22;1606;51.946;10.558;2023-02-17T06:20:07;12.10;99.90
3190;DHT22;1606;51.946;10.558;2023-02-17T06:22:36;12.10;99.90
3190;DHT22;1606;51.946;10.558;2023-02-17T06:25:04;12.20;99.90
3190;DHT22;1606;51.946;10.558;2023-02-17T06:27:32;12.30;99.90
3190;DHT22;1606;51.946;10.558;2023-02-17T06:30:02;12.20;99.90
3190;DHT22;1606;51.946;10.558;2023-02-17T06:32:29;12.00;99.90
3190;DHT22;1606;51.946;10.558;2023-02-17T06:34:57;11.90;99.90
3190;DHT22;1606;51.946;10.558;2023-02-17T06:37:25;11.90;99.90
3190;DHT22;1606;51.946;10.558;2023-02-17T06:39:53;12.00;99.90
3190;DHT22;1606;51.946;10.558;2023-02-17T06:42:20;11.80;99.90
3190;DHT22;1606;51.946;10.558;2023-02-17T06:44:48;12.00;99.90
3190;DHT22;1606;51.946;10.558;2023-02-17T06:47:17;12.10;99.90
3190;DHT22;1606;51.946;10.558;2023-02-17T06:49:45;12.10;99.90
3190;DHT22;1606;51.946;10.558;2023-02-17T06:52:13;12.20;99.90
3190;DHT22;1606;51.946;10.558;2023-02-17T06:54:40;12.10;99.90
3190;DHT22;1606;51.946;10.558;2023-02-17T06:57:08;12.10;99.90
3190;DHT22;1606;51.946;10.558;2023-02-17T06:59:36;12.40;99.90
3190;DHT22;1606;51.946;10.558;2023-02-17T07:02:04;12.30;99.90
3190;DHT22;1606;51.946;10.558;2023-02-17T07:04:33;12.40;99.90
3190;DHT22;1606;51.946;10.558;2023-02-17T07:07:00;12.20;99.90
3190;DHT22;1606;51.946;10.558;2023-02-17T07:09:28;12.30;99.90
3190;DHT22;1606;51.946;10.558;2023-02-17T07:11:56;12.20;99.90
3190;DHT22;1606;51.946;10.558;2023-02-17T07:14:24;12.20;99.90
3190;DHT22;1606;51.946;10.558;2023-02-17T07:16:52;12.40;99.90
3190;DHT22;1606;51.946;10.558;2023-02-17T07:19:20;12.60;99.90
3190;DHT22;1606;51.946;10.558;2023-02-17T07:21:49;12.60;99.90
3190;DHT22;1606;51.946;10.558;2023-02-17T07:24:17;12.40;99.90
3190;DHT22;1606;51.946;10.558;2023-02-17T07:26:45;12.70;99.90
3190;DHT22;1606;51.946;10.558;2023-02-17T07:29:13;12.60;99.90
3190;DHT22;1606;51.946;10.558;2023-02-17T07:31:40;12.50;99.90
3190;DHT22;1606;51.946;10.558;2023-02-17T07:34:08;12.70;99.90
3190;DHT22;1606;51.946;10.558;2023-02-17T07:36:36;12.70;99.90
3190;DHT22;1606;51.946;10.558;2023-02-17T07:39:05;12.70;99.90
3190;DHT22;1606;51.946;10.558;2023-02-17T07:41:33;12.70;99.90
3190;DHT22;1606;51.946;10.558;2023-02-17T07:44:01;12.90;99.90
3190;DHT22;1606;51.946;10.558;2023-02-17T07:46:29;12.80;99.90
3190;DHT22;1606;51.946;10.558;2023-02-17T07:48:57;12.70;99.90
3190;DHT22;1606;51.946;10.558;2023-02-17T07:51:24;12.70;99.90
3190;DHT22;1606;51.946;10.558;2023-02-17T07:53:52;12.70;99.90
3190;DHT22;1606;51.946;10.558;2023-02-17T07:56:22;12.80;99.90
3190;DHT22;1606;51.946;10.558;2023-02-17T07:58:51;12.60;99.90
3190;DHT22;1606;51.946;10.558;2023-02-17T08:01:20;12.50;99.90
3190;DHT22;1606;51.946;10.558;2023-02-17T08:03:49;12.50;99.90
3190;DHT22;1606;51.946;10.558;2023-02-17T08:06:18;12.60;99.90
3190;DHT22;1606;51.946;10.558;2023-02-17T08:08:49;12.60;99.90
3190;DHT22;1606;51.946;10.558;2023-02-17T08:11:36;12.70;99.90
3190;DHT22;1606;51.946;10.558;2023-02-17T08:14:23;12.80;99.90
3190;DHT22;1606;51.946;10.558;2023-02-17T08:16:51;12.90;99.90
3190;DHT22;1606;51.946;10.558;2023-02-17T08:19:20;13.00;99.90
3190;DHT22;1606;51.946;10.558;2023-02-17T08:21:48;13.00;99.90
3190;DHT22;1606;51.946;10.558;2023-02-17T08:24:16;13.10;99.90
3190;DHT22;1606;51.946;10.558;2023-02-17T08:26:46;13.10;99.90
3190;DHT22;1606;51.946;10.558;2023-02-17T08:29:14;13.10;99.90
3190;DHT22;1606;51.946;10.558;2023-02-17T08:31:42;12.80;99.90
3190;DHT22;1606;51.946;10.558;2023-02-17T08:34:11;13.00;99.90
3190;DHT22;1606;51.946;10.558;2023-02-17T08:36:39;13.00;99.90
3190;DHT22;1606;51.946;10.558;2023-02-17T08:39:10;12.80;99.90
3190;DHT22;1606;51.946;10.558;2023-02-17T08:41:38;12.90;99.90
3190;DHT22;1606;51.946;10.558;2023-02-17T08:44:10;13.10;99.90
3190;DHT22;1606;51.946;10.558;2023-02-17T08:46:38;13.10;99.90
3190;DHT22;1606;51.946;10.558;2023-02-17T08:49:06;12.90;99.90
3190;DHT22;1606;51.946;10.558;2023-02-17T08:51:35;13.00;99.90
3190;DHT22;1606;51.946;10.558;2023-02-17T08:54:04;13.20;99.90
3190;DHT22;1606;51.946;10.558;2023-02-17T08:56:33;13.10;99.90
3190;DHT22;1606;51.946;10.558;2023-02-17T08:59:01;13.20;99.90
3190;DHT22;1606;51.946;10.558;2023-02-17T09:01:30;13.40;99.90
3190;DHT22;1606;51.946;10.558;2023-02-17T09:03:59;13.30;99.90
3190;DHT22;1606;51.946;10.558;2023-02-17T09:06:32;13.40;99.90
3190;DHT22;1606;51.946;10.558;2023-02-17T09:09:00;13.60;99.90
3190;DHT22;1606;51.946;10.558;2023-02-17T09:11:28;13.60;99.90
3190;DHT22;1606;51.946;10.558;2023-02-17T09:13:56;13.80;99.90
3190;DHT22;1606;51.946;10.558;2023-02-17T09:16:24;13.70;99.90
3190;DHT22;1606;51.946;10.558;2023-02-17T09:18:53;13.70;99.90
3190;DHT22;1606;51.946;10.558;2023-02-17T09:21:21;13.80;99.90
3190;DHT22;1606;51.946;10.558;2023-02-17T09:23:50;13.80;99.90
3190;DHT22;1606;51.946;10.558;2023-02-17T09:26:19;13.70;99.90
3190;DHT22;1606;51.946;10.558;2023-02-17T09:28:47;13.70;99.90
3190;DHT22;1606;51.946;10.558;2023-02-17T09:31:17;13.70;99.90
3190;DHT22;1606;51.946;10.558;2023-02-17T09:33:47;13.60;99.90
3190;DHT22;1606;51.946;10.558;2023-02-17T09:36:18;13.70;99.90
3190;DHT22;1606;51.946;10.558;2023-02-17T09:38:47;13.90;99.90
3190;DHT22;1606;51.946;10.558;2023-02-17T09:41:17;13.80;99.90
3190;DHT22;1606;51.946;10.558;2023-02-17T09:43:46;13.70;99.90
3190;DHT22;1606;51.946;10.558;2023-02-17T09:46:18;13.80;99.90
3190;DHT22;1606;51.946;10.558;2023-02-17T09:48:48;13.70;99.90
3190;DHT22;1606;51.946;10.558;2023-02-17T09:51:25;13.80;99.90
3190;DHT22;1606;51.946;10.558;2023-02-17T09:54:01;13.80;99.90
3190;DHT22;1606;51.946;10.558;2023-02-17T09:56:34;13.80;99.90
3190;DHT22;1606;51.946;10.558;2023-02-17T09:59:07;14.10;99.90
3190;DHT22;1606;51.946;10.558;2023-02-17T10:01:39;14.30;99.90
3190;DHT22;1606;51.946;10.558;2023-02-17T10:04:11;14.20;99.90
3190;DHT22;1606;51.946;10.558;2023-02-17T10:06:47;14.10;99.90
3190;DHT22;1606;51.946;10.558;2023-02-17T10:09:20;14.20;99.90
3190;DHT22;1606;51.946;10.558;2023-02-17T10:11:53;14.30;99.90
3190;DHT22;1606;51.946;10.558;2023-02-17T10:14:28;14.20;99.90
3190;DHT22;1606;51.946;10.558;2023-02-17T10:17:02;14.20;99.90
3190;DHT22;1606;51.946;10.558;2023-02-17T10:19:35;14.10;99.90
3190;DHT22;1606;51.946;10.558;2023-02-17T10:22:11;14.10;99.90
3190;DHT22;1606;51.946;10.558;2023-02-17T10:24:40;14.10;99.90
3190;DHT22;1606;51.946;10.558;2023-02-17T10:27:18;14.20;99.90
3190;DHT22;1606;51.946;10.558;2023-02-17T10:29:54;14.10;99.90
3190;DHT22;1606;51.946;10.558;2023-02-17T10:32:27;14.10;99.90
3190;DHT22;1606;51.946;10.558;2023-02-17T10:35:12;14.30;99.90
3190;DHT22;1606;51.946;10.558;2023-02-17T10:37:45;14.50;99.90
3190;DHT22;1606;51.946;10.558;2023-02-17T10:40:19;14.60;99.90
3190;DHT22;1606;51.946;10.558;2023-02-17T10:42:50;14.60;99.90
3190;DHT22;1606;51.946;10.558;2023-02-17T10:45:25;14.40;99.90
3190;DHT22;1606;51.946;10.558;2023-02-17T10:47:58;14.20;99.90
3190;DHT22;1606;51.946;10.558;2023-02-17T10:50:29;14.40;99.90
3190;DHT22;1606;51.946;10.558;2023-02-17T10:52:59;14.30;99.90
3190;DHT22;1606;51.946;10.558;2023-02-17T10:55:34;14.30;99.90
3190;DHT22;1606;51.946;10.558;2023-02-17T10:58:09;14.10;99.90
3190;DHT22;1606;51.946;10.558;2023-02-17T11:00:40;14.00;99.90
3190;DHT22;1606;51.946;10.558;2023-02-17T11:03:18;14.00;99.90
3190;DHT22;1606;51.946;10.558;2023-02-17T11:05:52;13.70;99.90
3190;DHT22;1606;51.946;10.558;2023-02-17T11:08:28;13.70;99.90
3190;DHT22;1606;51.946;10.558;2023-02-17T11:11:02;13.90;99.90
3190;DHT22;1606;51.946;10.558;2023-02-17T11:13:36;14.40;99.90
3190;DHT22;1606;51.946;10.558;2023-02-17T11:16:05;14.50;99.90
3190;DHT22;1606;51.946;10.558;2023-02-17T11:18:36;14.50;99.90
3190;DHT22;1606;51.946;10.558;2023-02-17T11:21:08;14.80;99.90
3190;DHT22;1606;51.946;10.558;2023-02-17T11:23:47;14.60;99.90
3190;DHT22;1606;51.946;10.558;2023-02-17T11:26:21;14.70;99.90
3190;DHT22;1606;51.946;10.558;2023-02-17T11:28:49;14.60;99.90
3190;DHT22;1606;51.946;10.558;2023-02-17T11:31:25;14.40;99.90
3190;DHT22;1606;51.946;10.558;2023-02-17T11:33:53;14.60;99.90
3190;DHT22;1606;51.946;10.558;2023-02-17T11:36:24;14.60;99.90
3190;DHT22;1606;51.946;10.558;2023-02-17T11:38:54;14.60;99.90
3190;DHT22;1606;51.946;10.558;2023-02-17T11:41:22;14.40;99.90
3190;DHT22;1606;51.946;10.558;2023-02-17T11:43:52;14.60;99.90
3190;DHT22;1606;51.946;10.558;2023-02-17T11:46:24;14.80;99.90
3190;DHT22;1606;51.946;10.558;2023-02-17T11:49:04;14.80;99.90
3190;DHT22;1606;51.946;10.558;2023-02-17T11:51:47;14.70;99.90
3190;DHT22;1606;51.946;10.558;2023-02-17T11:54:24;14.70;99.90
3190;DHT22;1606;51.946;10.558;2023-02-17T11:57:15;14.90;99.90
3190;DHT22;1606;51.946;10.558;2023-02-17T12:00:01;14.90;99.90
3190;DHT22;1606;51.946;10.558;2023-02-17T12:02:43;14.80;99.90
3190;DHT22;1606;51.946;10.558;2023-02-17T12:05:21;15.10;99.90
3190;DHT22;1606;51.946;10.558;2023-02-17T12:08:10;14.90;99.90
3190;DHT22;1606;51.946;10.558;2023-02-17T12:10:55;15.00;99.90
3190;DHT22;1606;51.946;10.558;2023-02-17T12:13:34;15.10;99.90
3190;DHT22;1606;51.946;10.558;2023-02-17T12:16:17;15.00;99.90
3190;DHT22;1606;51.946;10.558;2023-02-17T12:18:55;15.20;99.90
3190;DHT22;1606;51.946;10.558;2023-02-17T12:21:36;15.30;99.90
3190;DHT22;1606;51.946;10.558;2023-02-17T12:24:21;15.40;99.90
3190;DHT22;1606;51.946;10.558;2023-02-17T12:26:56;15.50;99.90
3190;DHT22;1606;51.946;10.558;2023-02-17T12:29:37;15.50;99.90
3190;DHT22;1606;51.946;10.558;2023-02-17T12:32:19;15.60;99.90
3190;DHT22;1606;51.946;10.558;2023-02-17T12:34:54;15.50;99.90
3190;DHT22;1606;51.946;10.558;2023-02-17T12:37:29;15.60;99.90
3190;DHT22;1606;51.946;10.558;2023-02-17T12:40:00;15.70;99.90
3190;DHT22;1606;51.946;10.558;2023-02-17T12:42:34;15.40;99.90
3190;DHT22;1606;51.946;10.558;2023-02-17T12:45:06;15.30;99.90
3190;DHT22;1606;51.946;10.558;2023-02-17T12:47:48;15.40;99.90
3190;DHT22;1606;51.946;10.558;2023-02-17T12:50:21;15.40;99.90
3190;DHT22;1606;51.946;10.558;2023-02-17T12:52:56;15.40;99.90
3190;DHT22;1606;51.946;10.558;2023-02-17T12:55:29;15.40;99.90
3190;DHT22;1606;51.946;10.558;2023-02-17T12:58:02;15.50;99.90
3190;DHT22;1606;51.946;10.558;2023-02-17T13:00:33;15.60;99.90
3190;DHT22;1606;51.946;10.558;2023-02-17T13:03:02;15.50;99.90
3190;DHT22;1606;51.946;10.558;2023-02-17T13:05:36;15.80;99.90
3190;DHT22;1606;51.946;10.558;2023-02-17T13:08:08;15.80;99.90
3190;DHT22;1606;51.946;10.558;2023-02-17T13:10:38;15.80;99.90
3190;DHT22;1606;51.946;10.558;2023-02-17T13:13:11;15.90;99.90
3190;DHT22;1606;51.946;10.558;2023-02-17T13:15:42;16.20;99.90
3190;DHT22;1606;51.946;10.558;2023-02-17T13:18:13;16.30;99.90
3190;DHT22;1606;51.946;10.558;2023-02-17T13:20:55;16.30;99.90
3190;DHT22;1606;51.946;10.558;2023-02-17T13:23:33;16.10;99.90
3190;DHT22;1606;51.946;10.558;2023-02-17T13:26:34;16.30;99.90
3190;DHT22;1606;51.946;10.558;2023-02-17T13:29:20;16.40;99.90
3190;DHT22;1606;51.946;10.558;2023-02-17T13:31:59;16.30;99.90
3190;DHT22;1606;51.946;10.558;2023-02-17T13:34:31;16.40;99.90
3190;DHT22;1606;51.946;10.558;2023-02-17T13:37:01;16.40;99.90
3190;DHT22;1606;51.946;10.558;2023-02-17T13:39:34;16.50;99.90
3190;DHT22;1606;51.946;10.558;2023-02-17T13:42:02;16.40;99.90
3190;DHT22;1606;51.946;10.558;2023-02-17T13:44:33;16.10;99.90
3190;DHT22;1606;51.946;10.558;2023-02-17T13:47:13;15.90;99.90
3190;DHT22;1606;51.946;10.558;2023-02-17T13:49:41;16.30;99.90
3190;DHT22;1606;51.946;10.558;2023-02-17T13:52:21;16.20;99.90
3190;DHT22;1606;51.946;10.558;2023-02-17T13:54:52;16.20;99.90
3190;DHT22;1606;51.946;10.558;2023-02-17T13:57:23;15.90;99.90
3190;DHT22;1606;51.946;10.558;2023-02-17T13:59:52;15.90;99.90
3190;DHT22;1606;51.946;10.558;2023-02-17T14:02:30;15.90;99.90
3190;DHT22;1606;51.946;10.558;2023-02-17T14:05:10;15.50;99.90
3190;DHT22;1606;51.946;10.558;2023-02-17T14:07:43;15.70;99.90
3190;DHT22;1606;51.946;10.558;2023-02-17T14:10:21;15.60;99.90
3190;DHT22;1606;51.946;10.558;2023-02-17T14:12:50;15.60;99.90
3190;DHT22;1606;51.946;10.558;2023-02-17T14:15:21;15.60;99.90
3190;DHT22;1606;51.946;10.558;2023-02-17T14:17:49;15.60;99.90
3190;DHT22;1606;51.946;10.558;2023-02-17T14:20:29;15.60;99.90
3190;DHT22;1606;51.946;10.558;2023-02-17T14:23:00;15.50;99.90
3190;DHT22;1606;51.946;10.558;2023-02-17T14:25:34;15.30;99.90
3190;DHT22;1606;51.946;10.558;2023-02-17T14:28:03;15.30;99.90
3190;DHT22;1606;51.946;10.558;2023-02-17T14:30:34;15.30;99.90
3190;DHT22;1606;51.946;10.558;2023-02-17T14:33:04;14.90;99.90
3190;DHT22;1606;51.946;10.558;2023-02-17T14:35:36;14.60;99.90
3190;DHT22;1606;51.946;10.558;2023-02-17T14:38:24;14.50;99.90
3190;DHT22;1606;51.946;10.558;2023-02-17T14:40:53;14.40;99.90
3190;DHT22;1606;51.946;10.558;2023-02-17T14:43:21;14.20;99.90
3190;DHT22;1606;51.946;10.558;2023-02-17T14:45:51;14.10;99.90
3190;DHT22;1606;51.946;10.558;2023-02-17T14:48:19;14.10;99.90
3190;DHT22;1606;51.946;10.558;2023-02-17T14:50:47;13.80;99.90
3190;DHT22;1606;51.946;10.558;2023-02-17T14:53:20;14.00;99.90
3190;DHT22;1606;51.946;10.558;2023-02-17T14:55:51;14.00;99.90
3190;DHT22;1606;51.946;10.558;2023-02-17T14:58:22;14.20;99.90
3190;DHT22;1606;51.946;10.558;2023-02-17T15:00:51;14.10;99.90
3190;DHT22;1606;51.946;10.558;2023-02-17T15:03:19;14.10;99.90
3190;DHT22;1606;51.946;10.558;2023-02-17T15:05:48;14.10;99.90
3190;DHT22;1606;51.946;10.558;2023-02-17T15:08:17;14.40;99.90
3190;DHT22;1606;51.946;10.558;2023-02-17T15:10:47;14.10;99.90
3190;DHT22;1606;51.946;10.558;2023-02-17T15:13:17;13.90;99.90
3190;DHT22;1606;51.946;10.558;2023-02-17T15:15:45;14.00;99.90
3190;DHT22;1606;51.946;10.558;2023-02-17T15:18:17;13.80;99.90
3190;DHT22;1606;51.946;10.558;2023-02-17T15:20:47;13.80;99.90
3190;DHT22;1606;51.946;10.558;2023-02-17T15:23:18;13.70;99.90
3190;DHT22;1606;51.946;10.558;2023-02-17T15:25:47;13.90;99.90
3190;DHT22;1606;51.946;10.558;2023-02-17T15:28:17;13.90;99.90
3190;DHT22;1606;51.946;10.558;2023-02-17T15:30:49;13.80;99.90
3190;DHT22;1606;51.946;10.558;2023-02-17T15:33:19;13.70;99.90
3190;DHT22;1606;51.946;10.558;2023-02-17T15:35:49;13.80;99.90
3190;DHT22;1606;51.946;10.558;2023-02-17T15:38:19;13.90;99.90
3190;DHT22;1606;51.946;10.558;2023-02-17T15:40:48;13.80;99.90
3190;DHT22;1606;51.946;10.558;2023-02-17T15:43:19;13.50;99.90
3190;DHT22;1606;51.946;10.558;2023-02-17T15:45:47;13.40;99.90
3190;DHT22;1606;51.946;10.558;2023-02-17T15:48:22;13.40;99.90
3190;DHT22;1606;51.946;10.558;2023-02-17T15:50:51;13.20;99.90
3190;DHT22;1606;51.946;10.558;2023-02-17T15:53:19;13.00;99.90
3190;DHT22;1606;51.946;10.558;2023-02-17T15:55:48;13.20;99.90
3190;DHT22;1606;51.946;10.558;2023-02-17T15:58:18;13.30;99.90
3190;DHT22;1606;51.946;10.558;2023-02-17T16:00:47;13.30;99.90
3190;DHT22;1606;51.946;10.558;2023-02-17T16:03:16;13.20;99.90
3190;DHT22;1606;51.946;10.558;2023-02-17T16:05:46;13.10;99.90
3190;DHT22;1606;51.946;10.558;2023-02-17T16:08:13;13.00;99.90
3190;DHT22;1606;51.946;10.558;2023-02-17T16:10:41;12.60;99.90
3190;DHT22;1606;51.946;10.558;2023-02-17T16:13:13;12.80;99.90
3190;DHT22;1606;51.946;10.558;2023-02-17T16:15:42;12.80;99.90